Time;durP1;ratioP1;P1;durP2;ratioP2;P2;SDS_P1;SDS_P2;PMS_P1;PMS_P2;Temp;Humidity;BMP_temperature;BMP_pressure;BME280_temperature;BME280_humidity;BME280_pressure;Samples;Min_cycle;Max_cycle;Signal;HPM_P1;HPM_P2
2023/05/22 00:00:15;;;;;;;10.63;8.00;;;;;;;19.81;100.00;101853.31;5036450;28;20659;-79
2023/05/22 00:02:42;;;;;;;8.53;7.43;;;;;;;19.79;100.00;101861.13;5014439;28;20663;-78
2023/05/22 00:05:13;;;;;;;11.10;7.87;;;;;;;19.76;100.00;101865.47;5032430;28;20194;-78
2023/05/22 00:07:40;;;;;;;9.93;8.23;;;;;;;19.79;100.00;101850.72;5013599;28;20191;-78
2023/05/22 00:10:06;;;;;;;8.13;7.33;;;;;;;19.75;100.00;101850.72;5037058;28;20298;-78
2023/05/22 00:12:32;;;;;;;8.53;7.63;;;;;;;19.75;100.00;101841.19;5016756;28;20210;-77
2023/05/22 00:14:57;;;;;;;8.17;7.47;;;;;;;19.74;100.00;101834.25;5015023;28;20190;-78
2023/05/22 00:17:25;;;;;;;8.27;7.47;;;;;;;19.70;100.00;101835.13;5020125;28;20651;-76
2023/05/22 00:19:52;;;;;;;10.07;7.63;;;;;;;19.71;100.00;101828.22;4997839;28;20217;-79
2023/05/22 00:22:18;;;;;;;11.77;7.43;;;;;;;19.69;100.00;101825.63;5017068;28;20244;-78
2023/05/22 00:24:44;;;;;;;11.40;7.53;;;;;;;19.65;100.00;101823.00;5014397;28;20271;-79
2023/05/22 00:27:10;;;;;;;8.27;7.47;;;;;;;19.64;100.00;101829.06;5012752;28;20557;-76
2023/05/22 00:29:35;;;;;;;9.20;7.63;;;;;;;19.62;100.00;101816.09;5013791;28;20206;-77
2023/05/22 00:32:01;;;;;;;8.00;7.30;;;;;;;19.59;100.00;101823.03;5033198;28;20770;-78
2023/05/22 00:34:26;;;;;;;8.10;7.40;;;;;;;19.56;100.00;101808.31;5013506;28;20191;-77
2023/05/22 00:36:52;;;;;;;8.23;7.10;;;;;;;19.53;100.00;101807.44;5015023;28;20631;-76
2023/05/22 00:39:17;;;;;;;8.10;7.23;;;;;;;19.55;100.00;101790.09;5015318;28;20292;-76
2023/05/22 00:41:42;;;;;;;7.83;6.33;;;;;;;19.56;100.00;101773.63;5032023;28;20533;-78
2023/05/22 00:44:09;;;;;;;8.53;7.70;;;;;;;19.55;100.00;101772.78;5017427;28;20220;-77
2023/05/22 00:46:35;;;;;;;8.07;7.27;;;;;;;19.57;100.00;101760.66;5017133;28;20274;-78
2023/05/22 00:49:00;;;;;;;7.83;7.10;;;;;;;19.56;100.00;101756.31;5018502;28;20213;-79
2023/05/22 00:51:26;;;;;;;10.17;7.20;;;;;;;19.53;100.00;101758.91;5018649;28;20979;-78
2023/05/22 00:53:53;;;;;;;7.77;7.00;;;;;;;19.48;100.00;101760.66;5013630;28;20206;-76
2023/05/22 00:56:20;;;;;;;8.70;7.80;;;;;;;19.43;100.00;101775.41;5031353;28;20217;-78
2023/05/22 00:58:46;;;;;;;7.97;7.00;;;;;;;19.43;100.00;101754.63;5018806;28;20253;-79
2023/05/22 01:01:12;;;;;;;8.67;7.37;;;;;;;19.45;100.00;101749.44;5016937;28;20218;-76
2023/05/22 01:03:43;;;;;;;7.40;6.70;;;;;;;19.42;100.00;101750.28;5015773;28;20657;-76
2023/05/22 01:06:12;;;;;;;8.13;6.97;;;;;;;19.45;100.00;101754.63;5027309;28;20256;-77
2023/05/22 01:08:38;;;;;;;8.27;7.47;;;;;;;19.43;100.00;101751.19;5018740;28;20250;-78
2023/05/22 01:11:11;;;;;;;9.23;7.77;;;;;;;19.42;100.00;101763.28;5005301;28;20210;-78
2023/05/22 01:13:51;;;;;;;8.83;7.93;;;;;;;19.37;100.00;101771.94;5031011;28;20237;-76
2023/05/22 01:16:36;;;;;;;8.27;7.30;;;;;;;19.34;100.00;101766.78;5019841;28;20253;-78
2023/05/22 01:19:24;;;;;;;8.43;6.87;;;;;;;19.30;100.00;101778.03;5017293;28;20304;-78
2023/05/22 01:22:20;;;;;;;9.53;6.97;;;;;;;19.29;100.00;101771.09;5016132;28;20265;-77
2023/05/22 01:24:50;;;;;;;8.27;7.00;;;;;;;19.27;100.00;101775.44;5011922;28;20248;-77
2023/05/22 01:27:34;;;;;;;9.40;6.73;;;;;;;19.28;100.00;101757.25;5035580;28;20197;-79
2023/05/22 01:30:19;;;;;;;8.57;7.10;;;;;;;19.22;100.00;101761.56;5028850;28;20214;-78
2023/05/22 01:32:46;;;;;;;7.60;6.90;;;;;;;19.19;100.00;101761.53;5031060;28;20241;-79
2023/05/22 01:35:16;;;;;;;7.80;7.07;;;;;;;19.16;100.00;101764.16;5017623;28;20198;-77
2023/05/22 01:37:43;;;;;;;8.40;7.00;;;;;;;19.18;100.00;101752.03;5046994;28;20663;-77
2023/05/22 01:40:09;;;;;;;8.60;7.40;;;;;;;19.11;100.00;101766.75;5013255;28;20183;-77
2023/05/22 01:42:39;;;;;;;9.33;6.97;;;;;;;19.05;100.00;101760.69;5031282;28;20279;-77
2023/05/22 01:45:08;;;;;;;7.67;6.97;;;;;;;19.11;100.00;101752.91;5035636;28;20273;-78
2023/05/22 01:47:34;;;;;;;7.77;6.97;;;;;;;19.06;100.00;101746.84;5012532;28;20647;-78
2023/05/22 01:50:00;;;;;;;7.60;6.80;;;;;;;19.02;100.00;101752.91;5005506;28;20237;-77
2023/05/22 01:52:41;;;;;;;7.43;6.43;;;;;;;19.01;100.00;101761.56;5012532;28;20198;-77
2023/05/22 01:55:19;;;;;;;10.53;7.50;;;;;;;18.94;100.00;101758.13;5031068;28;20278;-78
2023/05/22 01:58:18;;;;;;;7.83;7.03;;;;;;;18.90;100.00;101768.50;5037265;28;20229;-78
2023/05/22 02:00:45;;;;;;;7.00;6.30;;;;;;;18.89;100.00;101775.41;5042600;28;20209;-79
2023/05/22 02:03:18;;;;;;;11.83;7.17;;;;;;;18.87;100.00;101773.66;4999848;28;20190;-77
2023/05/22 02:05:50;;;;;;;7.30;6.60;;;;;;;18.81;100.00;101777.16;5006516;28;20191;-77
2023/05/22 02:08:16;;;;;;;7.40;6.67;;;;;;;18.76;100.00;101765.91;5018796;28;20256;-78
2023/05/22 02:10:44;;;;;;;7.97;7.00;;;;;;;18.70;100.00;101778.00;5013365;28;20191;-79
2023/05/22 02:13:10;;;;;;;7.77;6.93;;;;;;;18.66;100.00;101782.28;5042542;28;20280;-78
2023/05/22 02:15:35;;;;;;;7.67;6.97;;;;;;;18.67;100.00;101772.78;5033135;28;20309;-77
2023/05/22 02:18:01;;;;;;;8.83;7.13;;;;;;;18.66;100.00;101774.50;5013456;28;20210;-77
2023/05/22 02:20:28;;;;;;;8.37;6.43;;;;;;;18.64;100.00;101762.41;4998888;28;20248;-77
2023/05/22 02:22:53;;;;;;;9.33;6.90;;;;;;;18.60;100.00;101763.28;5030818;28;20190;-77
2023/05/22 02:25:19;;;;;;;7.40;6.70;;;;;;;18.59;100.00;101753.75;5032606;28;20570;-78
2023/05/22 02:27:46;;;;;;;7.37;6.40;;;;;;;18.57;100.00;101743.34;5017575;28;20187;-77
2023/05/22 02:30:13;;;;;;;7.37;6.67;;;;;;;18.59;100.00;101736.47;5014060;28;20194;-78
2023/05/22 02:32:40;;;;;;;7.53;6.47;;;;;;;18.67;100.00;101710.50;5016666;28;20660;-77
2023/05/22 02:35:06;;;;;;;7.77;6.90;;;;;;;18.65;100.00;101697.53;5034597;28;20190;-78
2023/05/22 02:37:32;;;;;;;9.40;6.70;;;;;;;18.69;100.00;101700.97;5017183;28;20205;-78
2023/05/22 02:39:57;;;;;;;8.40;6.50;;;;;;;18.68;100.00;101691.47;5017830;28;20218;-80
2023/05/22 02:42:23;;;;;;;7.60;6.53;;;;;;;18.65;100.00;101699.28;5048007;28;20191;-79
2023/05/22 02:44:49;;;;;;;10.23;7.07;;;;;;;18.66;100.00;101713.97;5008946;28;20664;-79
2023/05/22 02:47:15;;;;;;;8.33;7.07;;;;;;;18.59;100.00;101717.41;5023443;28;20191;-79
2023/05/22 02:49:40;;;;;;;8.07;6.87;;;;;;;18.59;100.00;101717.41;5015886;28;20225;-78
2023/05/22 02:52:06;;;;;;;8.00;6.47;;;;;;;18.55;100.00;101715.69;5016303;28;20687;-78
2023/05/22 02:54:31;;;;;;;6.83;6.20;;;;;;;18.53;100.00;101705.34;5007567;28;20189;-79
2023/05/22 02:56:57;;;;;;;7.97;7.03;;;;;;;18.52;100.00;101710.50;5033736;28;20241;-77
2023/05/22 02:59:22;;;;;;;8.93;6.83;;;;;;;18.53;100.00;101707.91;5033511;28;20655;-76
2023/05/22 03:01:48;;;;;;;9.30;6.53;;;;;;;18.51;100.00;101701.84;5001925;28;20197;-78
2023/05/22 03:04:13;;;;;;;9.00;6.53;;;;;;;18.50;100.00;101694.06;5032911;28;20277;-77
2023/05/22 03:06:40;;;;;;;8.03;6.10;;;;;;;18.50;100.00;101694.94;5019495;28;20194;-78
2023/05/22 03:09:07;;;;;;;6.57;5.97;;;;;;;18.44;100.00;101705.31;5013736;28;20225;-79
2023/05/22 03:11:33;;;;;;;6.67;5.97;;;;;;;18.44;100.00;101701.84;5019690;28;20281;-78
2023/05/22 03:13:59;;;;;;;6.87;6.17;;;;;;;18.41;100.00;101694.03;5016957;28;20289;-78
2023/05/22 03:16:25;;;;;;;7.67;6.67;;;;;;;18.42;100.00;101678.50;5027474;28;20233;-78
2023/05/22 03:19:06;;;;;;;6.60;6.00;;;;;;;18.43;100.00;101675.03;5007980;28;20596;-79
2023/05/22 03:21:32;;;;;;;8.10;5.73;;;;;;;18.42;100.00;101668.13;5018660;28;20186;-79
2023/05/22 03:23:58;;;;;;;7.93;5.60;;;;;;;18.39;100.00;101672.44;4999008;28;20277;-78
2023/05/22 03:26:23;;;;;;;8.37;6.40;;;;;;;18.37;100.00;101643.06;5023345;28;20289;-79
2023/05/22 03:28:49;;;;;;;8.33;5.90;;;;;;;18.38;100.00;101637.84;5011534;28;20242;-78
2023/05/22 03:31:16;;;;;;;8.20;6.20;;;;;;;18.37;100.00;101637.88;4999635;28;20190;-79
2023/05/22 03:33:57;;;;;;;8.27;6.07;;;;;;;18.37;100.00;101646.50;5049181;28;20205;-79
2023/05/22 03:36:24;;;;;;;6.80;6.07;;;;;;;18.37;100.00;101650.84;5019333;28;20593;-77
2023/05/22 03:38:50;;;;;;;9.53;6.27;;;;;;;18.36;100.00;101652.56;4995528;28;20245;-78
2023/05/22 03:41:16;;;;;;;6.27;5.67;;;;;;;18.38;100.00;101661.19;5033851;28;20235;-78
2023/05/22 03:43:41;;;;;;;8.73;5.97;;;;;;;18.36;100.00;101667.25;5003894;28;20193;-78
2023/05/22 03:46:09;;;;;;;6.67;5.60;;;;;;;18.31;100.00;101643.88;5018783;28;20194;-78
2023/05/22 03:48:35;;;;;;;10.67;6.50;;;;;;;18.35;100.00;101660.34;5032702;28;20218;-77
2023/05/22 03:51:01;;;;;;;6.47;5.87;;;;;;;18.31;100.00;101648.19;5006646;28;20201;-77
2023/05/22 03:53:26;;;;;;;6.53;5.53;;;;;;;18.33;100.00;101638.72;5018918;28;20233;-78
2023/05/22 03:55:52;;;;;;;7.17;5.73;;;;;;;18.32;100.00;101642.13;5016372;28;20687;-79
2023/05/22 03:58:17;;;;;;;7.33;5.93;;;;;;;18.31;100.00;101653.38;5019504;28;20696;-78
2023/05/22 04:00:45;;;;;;;8.87;6.03;;;;;;;18.28;100.00;101649.06;5032861;28;20190;-77
2023/05/22 04:03:11;;;;;;;7.67;5.53;;;;;;;18.35;100.00;101644.78;5014741;28;20203;-79
2023/05/22 04:05:40;;;;;;;7.23;6.17;;;;;;;18.30;100.00;101649.06;5012719;28;20305;-78
2023/05/22 04:08:05;;;;;;;6.97;5.97;;;;;;;18.36;100.00;101639.59;5014499;28;20214;-78
2023/05/22 04:10:31;;;;;;;6.70;6.10;;;;;;;18.40;100.00;101630.06;5014943;28;20194;-76
2023/05/22 04:12:56;;;;;;;6.57;5.70;;;;;;;18.37;100.00;101637.88;5015089;28;20711;-77
2023/05/22 04:15:22;;;;;;;10.03;5.93;;;;;;;18.39;100.00;101644.78;5014500;28;20601;-78
2023/05/22 04:17:50;;;;;;;7.10;6.23;;;;;;;18.41;100.00;101647.34;5015177;28;20273;-78
2023/05/22 04:20:16;;;;;;;8.20;6.10;;;;;;;18.44;100.00;101645.66;5046785;28;20292;-77
2023/05/22 04:22:44;;;;;;;6.97;5.60;;;;;;;18.50;100.00;101642.16;5010263;28;20194;-78
2023/05/22 04:25:10;;;;;;;7.53;6.00;;;;;;;18.52;100.00;101643.06;5016553;28;20201;-78
2023/05/22 04:27:36;;;;;;;7.83;6.07;;;;;;;18.57;100.00;101641.31;5032228;28;20568;-79
2023/05/22 04:30:02;;;;;;;6.63;5.53;;;;;;;18.60;100.00;101628.38;5028431;28;20222;-78
2023/05/22 04:32:28;;;;;;;6.50;5.80;;;;;;;18.67;100.00;101607.59;5010272;28;20197;-78
2023/05/22 04:34:57;;;;;;;6.53;5.83;;;;;;;18.72;100.00;101616.22;5019275;28;20563;-77
2023/05/22 04:37:25;;;;;;;8.07;6.00;;;;;;;18.75;100.00;101605.81;5017324;28;20214;-79
2023/05/22 04:39:52;;;;;;;5.90;5.40;;;;;;;18.80;100.00;101590.25;5033309;28;20225;-78
2023/05/22 04:42:18;;;;;;;6.47;5.50;;;;;;;18.82;100.00;101580.72;5011376;28;20186;-79
2023/05/22 04:44:43;;;;;;;6.07;5.33;;;;;;;18.87;100.00;101569.47;5003092;28;20715;-78
2023/05/22 04:47:10;;;;;;;6.90;5.87;;;;;;;18.87;100.00;101584.16;5013661;28;20198;-78
2023/05/22 04:49:42;;;;;;;8.87;5.73;;;;;;;18.98;100.00;101557.31;4997692;28;20217;-77
2023/05/22 04:52:10;;;;;;;6.03;5.47;;;;;;;19.03;100.00;101534.78;5023003;28;20198;-79
2023/05/22 04:54:36;;;;;;;6.73;5.47;;;;;;;19.10;100.00;101535.63;5033677;28;20213;-77
2023/05/22 04:57:03;;;;;;;6.07;5.47;;;;;;;19.13;100.00;101527.84;5017609;28;20283;-78
2023/05/22 04:59:38;;;;;;;7.23;5.37;;;;;;;19.15;100.00;101531.28;5032103;28;20627;-79
2023/05/22 05:02:06;;;;;;;6.33;5.40;;;;;;;19.14;100.00;101547.72;5017066;28;20217;-77
2023/05/22 05:04:32;;;;;;;9.17;5.13;;;;;;;19.18;100.00;101518.28;5013341;28;20194;-80
2023/05/22 05:06:57;;;;;;;5.57;4.93;;;;;;;19.24;100.00;101489.72;5022457;28;20764;-79
2023/05/22 05:09:24;;;;;;;7.00;5.10;;;;;;;19.30;100.00;101471.53;5014502;28;20202;-77
2023/05/22 05:11:50;;;;;;;6.87;5.03;;;;;;;19.31;100.00;101471.50;5014577;28;20245;-79
2023/05/22 05:14:16;;;;;;;7.10;4.77;;;;;;;19.33;100.00;101448.97;4993707;28;20228;-78
2023/05/22 05:16:42;;;;;;;5.37;4.27;;;;;;;19.42;100.00;101455.84;5032027;28;20634;-80
2023/05/22 05:19:08;;;;;;;6.23;5.03;;;;;;;19.44;100.00;101459.31;5019343;28;20252;-78
2023/05/22 05:21:33;;;;;;;6.23;5.20;;;;;;;19.42;100.00;101454.13;5018720;28;20204;-78
2023/05/22 05:24:00;;;;;;;6.50;5.17;;;;;;;19.47;100.00;101467.06;5014958;28;20194;-77
2023/05/22 05:26:26;;;;;;;5.80;4.80;;;;;;;19.47;99.10;101444.56;5021954;28;20293;-79
2023/05/22 05:28:52;;;;;;;10.63;5.00;;;;;;;19.47;98.49;101438.47;5019773;28;20202;-80
2023/05/22 05:31:22;;;;;;;6.60;4.87;;;;;;;19.51;100.00;101448.84;5019254;28;20569;-78
2023/05/22 05:34:12;;;;;;;6.10;5.50;;;;;;;19.48;100.00;101455.81;5020923;28;20206;-79
2023/05/22 05:37:10;;;;;;;6.80;5.40;;;;;;;19.53;100.00;101456.66;5003307;28;20422;-80
2023/05/22 05:39:36;;;;;;;6.87;5.13;;;;;;;19.52;99.73;101440.19;4998522;28;20214;-78
2023/05/22 05:42:04;;;;;;;5.47;4.97;;;;;;;19.63;100.00;101461.72;5013690;28;20194;-79
2023/05/22 05:44:30;;;;;;;5.53;4.80;;;;;;;19.62;98.51;101441.81;5014917;28;20229;-80
2023/05/22 05:46:56;;;;;;;8.70;4.57;;;;;;;19.67;97.68;101427.06;5017542;28;20195;-76
2023/05/22 05:49:21;;;;;;;6.60;4.93;;;;;;;19.77;97.13;101420.91;5012509;28;20309;-79
2023/05/22 05:51:47;;;;;;;5.97;4.80;;;;;;;19.88;99.75;101428.59;4999813;28;20191;-78
2023/05/22 05:54:14;;;;;;;6.13;5.07;;;;;;;19.93;94.75;101406.03;5015261;28;20198;-80
2023/05/22 05:56:40;;;;;;;5.80;5.03;;;;;;;20.04;97.56;101412.84;5036273;28;20210;-79
2023/05/22 05:59:06;;;;;;;5.70;4.47;;;;;;;20.13;99.00;101420.59;5014599;28;20713;-78
2023/05/22 06:01:38;;;;;;;5.87;4.43;;;;;;;20.18;92.94;101377.19;5036645;28;20293;-79
2023/05/22 06:04:06;;;;;;;5.40;4.10;;;;;;;20.28;89.64;101351.94;5010134;28;20198;-80
2023/05/22 06:06:34;;;;;;;4.73;3.93;;;;;;;20.49;86.44;101326.50;5019170;28;20202;-79
2023/05/22 06:09:09;;;;;;;9.77;4.63;;;;;;;20.71;86.03;101314.91;5038719;28;20837;-79
2023/05/22 06:11:49;;;;;;;7.30;4.47;;;;;;;20.84;82.20;101290.44;5015690;28;20245;-79
2023/05/22 06:14:15;;;;;;;6.47;4.50;;;;;;;20.95;81.42;101278.13;5019299;28;20693;-80
2023/05/22 06:16:41;;;;;;;8.87;4.73;;;;;;;21.15;83.37;101290.84;5019675;28;20237;-77
2023/05/22 06:19:06;;;;;;;4.77;4.27;;;;;;;21.23;83.71;101297.63;5017595;28;20594;-78
2023/05/22 06:21:32;;;;;;;6.33;4.93;;;;;;;21.24;79.57;101277.66;5021188;28;20190;-80
2023/05/22 06:23:58;;;;;;;5.40;4.27;;;;;;;21.06;81.46;101291.81;5018972;28;20202;-76
2023/05/22 06:26:24;;;;;;;6.53;4.67;;;;;;;21.02;81.76;101295.38;5016292;28;21121;-78
2023/05/22 06:28:51;;;;;;;7.23;4.60;;;;;;;21.01;82.12;101311.88;5020330;28;20234;-77
2023/05/22 06:31:17;;;;;;;4.90;4.20;;;;;;;20.95;83.51;101321.53;5018487;28;20191;-77
2023/05/22 06:33:46;;;;;;;7.43;4.13;;;;;;;20.87;78.76;101302.53;5011094;28;20801;-77
2023/05/22 06:36:11;;;;;;;6.47;4.73;;;;;;;20.85;80.92;101312.97;5014294;28;20301;-78
2023/05/22 06:38:38;;;;;;;5.43;4.50;;;;;;;21.18;85.07;101348.94;5032427;28;20295;-78
2023/05/22 06:41:05;;;;;;;7.63;4.77;;;;;;;21.22;77.30;101295.91;5022118;28;20647;-77
2023/05/22 06:43:31;;;;;;;7.63;4.70;;;;;;;21.27;82.53;101324.47;5016063;28;20225;-78
2023/05/22 06:46:00;;;;;;;6.77;4.77;;;;;;;21.42;80.29;101313.81;5023918;28;20887;-77
2023/05/22 06:48:38;;;;;;;7.37;4.60;;;;;;;21.43;79.45;101329.41;5015433;28;20214;-78
2023/05/22 06:51:10;;;;;;;10.53;4.60;;;;;;;21.28;74.95;101280.16;5017995;28;20666;-79
2023/05/22 06:53:38;;;;;;;11.03;4.60;;;;;;;21.50;75.88;101294.53;5021275;28;20198;-78
2023/05/22 06:56:08;;;;;;;7.10;4.87;;;;;;;21.88;74.95;101291.25;5013478;28;20210;-78
2023/05/22 06:58:47;;;;;;;10.17;4.63;;;;;;;22.15;71.96;101278.50;5016230;28;20267;-78
2023/05/22 07:01:13;;;;;;;6.37;4.70;;;;;;;22.34;68.72;101258.94;5028623;28;20202;-78
2023/05/22 07:03:46;;;;;;;8.93;4.37;;;;;;;22.56;67.38;101261.13;5021119;28;20194;-78
2023/05/22 07:06:40;;;;;;;4.93;4.00;;;;;;;22.57;66.65;101270.69;5006606;28;20195;-79
2023/05/22 07:09:12;;;;;;;7.37;4.40;;;;;;;22.49;66.13;101272.59;5017862;28;20214;-78
2023/05/22 07:11:38;;;;;;;8.40;4.50;;;;;;;22.96;65.36;101270.59;5014724;28;20198;-79
2023/05/22 07:14:03;;;;;;;5.63;4.60;;;;;;;22.94;62.03;101248.88;5014859;28;20194;-78
2023/05/22 07:16:30;;;;;;;6.37;4.03;;;;;;;22.93;62.80;101262.81;5014952;28;20714;-78
2023/05/22 07:18:56;;;;;;;6.03;4.03;;;;;;;22.99;65.13;101283.59;5014713;28;20229;-78
2023/05/22 07:21:24;;;;;;;6.10;4.23;;;;;;;22.97;64.04;101284.53;5053238;28;20194;-77
2023/05/22 07:23:51;;;;;;;4.67;4.27;;;;;;;23.17;66.11;101300.56;4998035;28;20194;-79
2023/05/22 07:26:17;;;;;;;7.77;4.47;;;;;;;23.07;64.54;101286.84;5014619;28;20190;-78
2023/05/22 07:28:49;;;;;;;7.53;4.30;;;;;;;23.13;64.64;101286.72;5012772;28;20202;-78
2023/05/22 07:31:15;;;;;;;4.63;4.03;;;;;;;23.26;64.55;101282.06;5022576;28;20199;-79
2023/05/22 07:33:40;;;;;;;5.63;4.10;;;;;;;23.38;64.61;101282.63;5021012;28;20617;-77
2023/05/22 07:36:06;;;;;;;8.00;3.90;;;;;;;23.51;66.62;101293.59;5013778;28;21397;-77
2023/05/22 07:38:31;;;;;;;10.37;4.40;;;;;;;23.52;63.88;101274.44;5014227;28;20218;-78
2023/05/22 07:41:03;;;;;;;7.33;4.27;;;;;;;23.42;63.59;101273.81;5001264;28;20194;-78
2023/05/22 07:43:30;;;;;;;8.00;4.40;;;;;;;23.63;63.81;101285.44;5020261;28;20186;-78
2023/05/22 07:45:57;;;;;;;7.97;4.17;;;;;;;23.59;61.05;101261.16;5018586;28;20186;-79
2023/05/22 07:48:25;;;;;;;7.53;4.20;;;;;;;23.58;62.81;101282.94;5014004;28;20210;-79
2023/05/22 07:50:50;;;;;;;8.20;4.30;;;;;;;23.82;66.40;101325.91;5020003;28;20197;-77
2023/05/22 07:53:16;;;;;;;9.13;4.43;;;;;;;23.78;62.55;101275.44;5009419;28;20288;-79
2023/05/22 07:55:43;;;;;;;9.07;4.70;;;;;;;23.73;62.84;101282.56;5026674;28;20237;-79
2023/05/22 07:58:09;;;;;;;6.27;4.10;;;;;;;23.88;62.75;101278.63;5017620;28;20218;-78
2023/05/22 08:00:38;;;;;;;7.50;4.47;;;;;;;24.09;62.66;101275.47;5015807;28;20569;-79
2023/05/22 08:03:03;;;;;;;8.23;4.45;;;;;;;24.39;61.47;101285.00;5021337;28;20202;-78
2023/05/22 08:05:29;;;;;;;6.38;4.00;;;;;;;24.71;60.24;101277.06;5032956;28;20277;-80
2023/05/22 08:07:54;;;;;;;5.55;3.50;;;;;;;24.86;59.68;101277.44;5019927;28;20277;-79
2023/05/22 08:10:20;;;;;;;5.22;3.67;;;;;;;24.81;56.65;101261.00;5026730;28;20203;-78
2023/05/22 08:12:45;;;;;;;4.63;3.85;;;;;;;24.96;57.94;101309.47;5034215;28;20656;-80
2023/05/22 08:15:11;;;;;;;4.00;3.70;;;;;;;25.08;56.39;101296.81;5032199;28;20878;-79
2023/05/22 08:17:36;;;;;;;4.30;3.90;;;;;;;25.27;53.54;101287.44;5032363;28;20193;-78
2023/05/22 08:20:02;;;;;;;4.85;3.92;;;;;;;25.36;54.33;101312.50;5028487;28;20241;-78
2023/05/22 08:22:30;;;;;;;4.57;3.53;;;;;;;25.65;54.29;101318.47;5031556;28;20194;-80
2023/05/22 08:24:56;;;;;;;6.72;4.15;;;;;;;25.84;51.95;101295.91;5031344;28;20305;-78
2023/05/22 08:27:22;;;;;;;6.32;3.88;;;;;;;25.87;52.98;101314.19;5022160;28;20191;-80
2023/05/22 08:29:47;;;;;;;4.65;4.22;;;;;;;25.84;50.82;101298.53;5031393;28;20646;-80
2023/05/22 08:32:13;;;;;;;4.63;4.00;;;;;;;25.89;53.01;101406.03;5031378;28;20202;-78
2023/05/22 08:34:39;;;;;;;6.90;3.58;;;;;;;25.99;49.78;101374.19;5031199;28;20198;-79
2023/05/22 08:37:05;;;;;;;5.60;3.55;;;;;;;25.85;49.91;101368.53;5027937;28;20218;-79
2023/05/22 08:39:31;;;;;;;5.30;3.53;;;;;;;25.84;48.92;101366.78;5019359;28;20761;-79
2023/05/22 08:41:57;;;;;;;8.15;3.70;;;;;;;26.08;47.57;101360.72;5025040;28;20206;-79
2023/05/22 08:44:23;;;;;;;5.45;3.85;;;;;;;26.25;48.37;101387.22;5013146;28;20190;-79
2023/05/22 08:46:51;;;;;;;6.10;3.97;;;;;;;26.33;48.75;101387.81;5014964;28;20736;-80
2023/05/22 08:49:20;;;;;;;9.77;3.90;;;;;;;26.55;49.07;101394.00;5031196;28;20222;-78
2023/05/22 08:51:51;;;;;;;8.35;3.60;;;;;;;26.39;47.75;101374.44;5025245;28;20185;-79
2023/05/22 08:54:21;;;;;;;6.32;3.80;;;;;;;26.38;46.84;101383.25;5030477;28;20202;-79
2023/05/22 08:56:48;;;;;;;8.93;4.10;;;;;;;26.61;46.23;101380.66;5032033;28;20612;-79
2023/05/22 08:59:14;;;;;;;9.52;3.80;;;;;;;26.56;45.94;101373.81;5032340;28;20218;-79
2023/05/22 09:01:40;;;;;;;6.10;3.60;;;;;;;26.82;45.81;101369.31;5032412;28;20598;-79
2023/05/22 09:04:05;;;;;;;5.35;3.35;;;;;;;26.63;45.55;101368.31;5031679;28;20193;-79
2023/05/22 09:06:31;;;;;;;9.25;3.90;;;;;;;26.43;45.11;101365.53;5030911;28;20212;-79
2023/05/22 09:08:58;;;;;;;4.30;3.30;;;;;;;26.46;45.99;101383.81;5032677;28;20841;-79
2023/05/22 09:11:25;;;;;;;6.10;3.30;;;;;;;26.58;46.42;101386.03;5014400;28;20550;-80
2023/05/22 09:13:50;;;;;;;8.93;3.70;;;;;;;26.59;46.33;101382.50;5020097;28;20201;-80
2023/05/22 09:16:17;;;;;;;7.13;3.75;;;;;;;26.55;46.75;101380.84;5030871;28;20214;-80
2023/05/22 09:18:43;;;;;;;5.28;3.40;;;;;;;26.26;46.63;101386.34;5024095;28;20201;-80
2023/05/22 09:21:13;;;;;;;5.70;3.45;;;;;;;26.52;46.19;101374.88;5023301;28;20630;-77
2023/05/22 09:23:39;;;;;;;4.60;3.58;;;;;;;26.38;46.12;101362.22;5019097;28;20198;-79
2023/05/22 09:26:04;;;;;;;7.38;3.83;;;;;;;26.40;45.51;101351.66;5030663;28;20729;-79
2023/05/22 09:28:35;;;;;;;5.38;3.47;;;;;;;26.76;46.52;101390.56;5030441;28;20587;-80
2023/05/22 09:31:02;;;;;;;8.35;4.03;;;;;;;26.62;46.97;101386.78;5030795;28;20206;-78
2023/05/22 09:33:28;;;;;;;10.93;4.32;;;;;;;26.64;46.29;101379.69;5029338;28;20194;-80
2023/05/22 09:35:54;;;;;;;7.97;3.55;;;;;;;26.75;46.83;101380.13;5034095;28;20272;-80
2023/05/22 09:38:27;;;;;;;6.43;3.47;;;;;;;26.99;44.45;101337.94;5034371;28;20853;-77
2023/05/22 09:40:53;;;;;;;7.63;3.47;;;;;;;27.15;45.05;101368.00;5034960;28;20194;-80
2023/05/22 09:43:22;;;;;;;3.95;3.17;;;;;;;27.27;44.69;101380.66;5033882;28;20232;-79
2023/05/22 09:45:48;;;;;;;5.00;3.33;;;;;;;27.89;44.35;101373.66;5034974;28;20273;-80
2023/05/22 09:48:15;;;;;;;5.72;3.53;;;;;;;27.97;42.79;101350.50;5034710;28;20221;-79
2023/05/22 09:50:46;;;;;;;6.13;3.42;;;;;;;28.14;42.68;101355.84;5034659;28;20203;-80
2023/05/22 09:53:14;;;;;;;6.63;3.45;;;;;;;28.38;42.15;101346.00;5035101;28;20209;-79
2023/05/22 09:55:40;;;;;;;4.65;3.13;;;;;;;28.21;41.86;101362.56;5036023;28;20296;-80
2023/05/22 09:58:08;;;;;;;6.97;3.47;;;;;;;28.09;41.75;101359.63;5017308;28;20263;-79
2023/05/22 10:00:35;;;;;;;6.47;3.63;;;;;;;28.34;41.07;101347.91;5028408;28;20202;-80
2023/05/22 10:03:11;;;;;;;4.50;3.50;;;;;;;28.35;41.15;101343.47;5035972;28;20198;-78
2023/05/22 10:05:38;;;;;;;3.58;3.28;;;;;;;28.52;41.03;101346.25;5035613;28;20627;-79
2023/05/22 10:08:09;;;;;;;4.20;3.20;;;;;;;28.92;41.05;101356.63;5021554;28;20750;-79
2023/05/22 10:10:36;;;;;;;6.25;3.60;;;;;;;28.85;40.41;101336.75;5035123;28;20194;-80
2023/05/22 10:13:04;;;;;;;5.90;3.45;;;;;;;29.05;41.44;101352.47;5036503;28;20677;-79
2023/05/22 10:15:34;;;;;;;4.85;3.35;;;;;;;28.98;40.14;101328.22;5037689;28;20671;-80
2023/05/22 10:18:00;;;;;;;7.28;3.25;;;;;;;28.82;40.60;101329.81;5020055;28;20198;-79
2023/05/22 10:20:27;;;;;;;3.53;3.08;;;;;;;28.98;40.66;101325.56;5034600;28;20213;-80
2023/05/22 10:22:54;;;;;;;4.90;3.13;;;;;;;29.12;39.38;101312.56;5036712;28;20197;-80
2023/05/22 10:25:24;;;;;;;4.80;3.60;;;;;;;29.36;39.74;101315.75;5018679;28;20294;-80
2023/05/22 10:27:51;;;;;;;8.18;3.63;;;;;;;29.82;41.86;101362.69;5036733;28;20194;-79
2023/05/22 10:30:41;;;;;;;5.35;3.42;;;;;;;29.88;39.90;101326.22;5035762;28;20206;-79
2023/05/22 10:33:58;;;;;;;5.20;3.90;;;;;;;29.73;38.78;101308.53;4987098;28;20195;-79
2023/05/22 10:36:32;;;;;;;5.72;3.22;;;;;;;29.72;40.31;101314.75;5030900;28;20226;-80
2023/05/22 10:39:27;;;;;;;6.57;3.80;;;;;;;29.72;39.22;101300.69;5037006;28;20244;-80
2023/05/22 10:41:52;;;;;;;4.57;3.28;;;;;;;29.35;38.02;101304.34;5028125;28;20216;-79
2023/05/22 10:44:18;;;;;;;11.75;3.97;;;;;;;29.55;37.87;101304.19;5036614;28;20190;-80
2023/05/22 10:46:50;;;;;;;5.47;2.95;;;;;;;29.38;37.82;101293.59;5036457;28;20179;-80
2023/05/22 10:49:22;;;;;;;5.10;3.30;;;;;;;29.17;37.88;101297.34;5018223;28;20226;-78
2023/05/22 10:51:54;;;;;;;7.20;3.33;;;;;;;29.44;37.22;101293.31;5030602;28;20182;-80
2023/05/22 10:54:37;;;;;;;7.05;3.75;;;;;;;29.17;38.21;101309.69;5036382;28;20610;-80
2023/05/22 10:57:33;;;;;;;9.68;3.30;;;;;;;28.98;38.63;101307.09;5036614;28;20699;-80
2023/05/22 11:00:09;;;;;;;8.43;3.25;;;;;;;28.95;38.60;101317.75;5026746;28;20244;-79
2023/05/22 11:02:40;;;;;;;3.88;3.22;;;;;;;29.02;38.81;101324.47;5033216;28;20193;-78
2023/05/22 11:05:17;;;;;;;5.13;3.40;;;;;;;29.27;37.60;101295.09;5033752;28;20674;-79
2023/05/22 11:07:43;;;;;;;7.07;3.85;;;;;;;29.03;38.10;101310.38;5025918;28;20236;-79
2023/05/22 11:10:08;;;;;;;7.10;3.40;;;;;;;28.76;38.57;101327.50;5033182;28;20593;-78
2023/05/22 11:12:34;;;;;;;6.75;3.72;;;;;;;28.77;38.52;101307.22;5033352;28;20277;-78
2023/05/22 11:15:08;;;;;;;5.85;3.58;;;;;;;29.15;39.12;101309.75;5018333;28;20221;-78
2023/05/22 11:17:39;;;;;;;6.28;3.67;;;;;;;29.13;38.49;101297.56;5032637;28;20268;-79
2023/05/22 11:20:19;;;;;;;9.38;3.53;;;;;;;29.01;38.69;101283.19;5030359;28;20229;-78
2023/05/22 11:22:59;;;;;;;4.88;3.47;;;;;;;28.93;40.55;101332.78;5011812;28;20217;-77
2023/05/22 11:25:26;;;;;;;3.85;2.95;;;;;;;29.23;38.59;101283.84;5010132;28;20739;-77
2023/05/22 11:27:52;;;;;;;3.60;3.30;;;;;;;29.44;38.43;101279.25;5034022;28;20202;-79